sensor_id;sensor_type;location;lat;lon;timestamp;pressure;altitude;pressure_sealevel;temperature;humidity
19286;BME280;9776;50.798;6.430;2022-07-11T00:00:00;100982.53;;;20.30;54.19
19286;BME280;9776;50.798;6.430;2022-07-11T00:02:27;100982.47;;;20.23;54.30
19286;BME280;9776;50.798;6.430;2022-07-11T00:04:55;100980.63;;;20.24;54.28
19286;BME280;9776;50.798;6.430;2022-07-11T00:07:22;100981.66;;;20.23;54.24
19286;BME280;9776;50.798;6.430;2022-07-11T00:09:49;100978.31;;;20.21;54.46
19286;BME280;9776;50.798;6.430;2022-07-11T00:12:15;100981.84;;;20.21;54.75
19286;BME280;9776;50.798;6.430;2022-07-11T00:14:46;100981.22;;;20.19;54.66
19286;BME280;9776;50.798;6.430;2022-07-11T00:17:12;100978.31;;;20.14;54.90
19286;BME280;9776;50.798;6.430;2022-07-11T00:19:39;100976.88;;;20.18;54.90
19286;BME280;9776;50.798;6.430;2022-07-11T00:22:08;100984.13;;;20.24;54.82
19286;BME280;9776;50.798;6.430;2022-07-11T00:24:35;100978.97;;;20.23;54.70
19286;BME280;9776;50.798;6.430;2022-07-11T00:27:01;100978.53;;;20.19;54.91
19286;BME280;9776;50.798;6.430;2022-07-11T00:29:28;100979.53;;;20.18;55.09
19286;BME280;9776;50.798;6.430;2022-07-11T00:31:55;100976.88;;;20.18;54.92
19286;BME280;9776;50.798;6.430;2022-07-11T00:34:22;100976.03;;;20.18;55.24
19286;BME280;9776;50.798;6.430;2022-07-11T00:36:49;100972.28;;;20.12;55.12
19286;BME280;9776;50.798;6.430;2022-07-11T00:39:17;100975.34;;;20.09;55.48
19286;BME280;9776;50.798;6.430;2022-07-11T00:41:44;100970.38;;;20.06;55.37
19286;BME280;9776;50.798;6.430;2022-07-11T00:44:12;100971.22;;;20.07;55.56
19286;BME280;9776;50.798;6.430;2022-07-11T00:46:39;100981.88;;;20.00;55.76
19286;BME280;9776;50.798;6.430;2022-07-11T00:49:06;100977.19;;;20.02;55.83
19286;BME280;9776;50.798;6.430;2022-07-11T00:51:33;100973.28;;;20.05;55.70
19286;BME280;9776;50.798;6.430;2022-07-11T00:54:00;100968.34;;;20.08;55.83
19286;BME280;9776;50.798;6.430;2022-07-11T00:56:29;100968.38;;;20.15;55.48
19286;BME280;9776;50.798;6.430;2022-07-11T00:58:57;100969.22;;;20.15;55.46
19286;BME280;9776;50.798;6.430;2022-07-11T01:01:24;100966.75;;;20.14;55.38
19286;BME280;9776;50.798;6.430;2022-07-11T01:03:51;100965.91;;;20.13;55.55
19286;BME280;9776;50.798;6.430;2022-07-11T01:06:18;100959.94;;;20.11;55.57
19286;BME280;9776;50.798;6.430;2022-07-11T01:08:45;100962.78;;;20.10;55.73
19286;BME280;9776;50.798;6.430;2022-07-11T01:11:12;100954.31;;;20.06;55.69
19286;BME280;9776;50.798;6.430;2022-07-11T01:13:42;100948.94;;;20.06;55.73
19286;BME280;9776;50.798;6.430;2022-07-11T01:16:11;100958.41;;;20.02;56.04
19286;BME280;9776;50.798;6.430;2022-07-11T01:18:40;100950.56;;;20.01;56.14
19286;BME280;9776;50.798;6.430;2022-07-11T01:21:17;100945.78;;;19.96;56.48
19286;BME280;9776;50.798;6.430;2022-07-11T01:23:47;100945.84;;;20.03;56.15
19286;BME280;9776;50.798;6.430;2022-07-11T01:26:15;100936.97;;;20.02;56.11
19286;BME280;9776;50.798;6.430;2022-07-11T01:28:41;100950.56;;;20.01;56.55
19286;BME280;9776;50.798;6.430;2022-07-11T01:31:08;100939.78;;;19.94;56.73
19286;BME280;9776;50.798;6.430;2022-07-11T01:33:35;100949.25;;;19.90;56.93
19286;BME280;9776;50.798;6.430;2022-07-11T01:36:03;100945.50;;;19.85;57.01
19286;BME280;9776;50.798;6.430;2022-07-11T01:38:29;100945.84;;;19.75;57.37
19286;BME280;9776;50.798;6.430;2022-07-11T01:40:57;100948.84;;;19.65;57.82
19286;BME280;9776;50.798;6.430;2022-07-11T01:43:24;100947.81;;;19.66;57.96
19286;BME280;9776;50.798;6.430;2022-07-11T01:45:51;100935.88;;;19.69;57.72
19286;BME280;9776;50.798;6.430;2022-07-11T01:48:18;100930.91;;;19.66;57.78
19286;BME280;9776;50.798;6.430;2022-07-11T01:50:45;100936.94;;;19.68;57.94
19286;BME280;9776;50.798;6.430;2022-07-11T01:53:12;100937.16;;;19.73;57.76
19286;BME280;9776;50.798;6.430;2022-07-11T01:55:39;100948.72;;;19.73;57.87
19286;BME280;9776;50.798;6.430;2022-07-11T01:58:07;100943.38;;;19.80;57.82
19286;BME280;9776;50.798;6.430;2022-07-11T02:00:34;100939.91;;;19.79;57.83
19286;BME280;9776;50.798;6.430;2022-07-11T02:03:01;100941.47;;;19.74;58.08
19286;BME280;9776;50.798;6.430;2022-07-11T02:05:28;100937.09;;;19.66;58.16
19286;BME280;9776;50.798;6.430;2022-07-11T02:07:55;100938.56;;;19.69;58.36
19286;BME280;9776;50.798;6.430;2022-07-11T02:10:42;100935.06;;;19.68;58.12
19286;BME280;9776;50.798;6.430;2022-07-11T02:13:11;100937.69;;;19.62;58.46
19286;BME280;9776;50.798;6.430;2022-07-11T02:15:39;100935.78;;;19.56;58.69
19286;BME280;9776;50.798;6.430;2022-07-11T02:18:06;100932.88;;;19.51;58.70
19286;BME280;9776;50.798;6.430;2022-07-11T02:20:34;100929.75;;;19.47;59.15
19286;BME280;9776;50.798;6.430;2022-07-11T02:23:01;100925.78;;;19.43;59.13
19286;BME280;9776;50.798;6.430;2022-07-11T02:25:29;100927.00;;;19.41;59.53
19286;BME280;9776;50.798;6.430;2022-07-11T02:27:56;100933.53;;;19.38;59.30
19286;BME280;9776;50.798;6.430;2022-07-11T02:30:24;100927.72;;;19.35;59.22
19286;BME280;9776;50.798;6.430;2022-07-11T02:32:52;100931.56;;;19.25;59.98
19286;BME280;9776;50.798;6.430;2022-07-11T02:35:19;100931.69;;;19.17;59.97
19286;BME280;9776;50.798;6.430;2022-07-11T02:37:46;100922.19;;;19.15;60.05
19286;BME280;9776;50.798;6.430;2022-07-11T02:40:14;100932.91;;;19.15;60.06
19286;BME280;9776;50.798;6.430;2022-07-11T02:42:41;100930.59;;;19.12;60.13
19286;BME280;9776;50.798;6.430;2022-07-11T02:45:08;100933.84;;;19.07;60.48
19286;BME280;9776;50.798;6.430;2022-07-11T02:47:37;100923.44;;;18.98;60.91
19286;BME280;9776;50.798;6.430;2022-07-11T02:50:07;100931.59;;;18.90;60.84
19286;BME280;9776;50.798;6.430;2022-07-11T02:52:34;100933.19;;;18.84;61.28
19286;BME280;9776;50.798;6.430;2022-07-11T02:55:17;100935.13;;;18.76;61.38
19286;BME280;9776;50.798;6.430;2022-07-11T02:57:54;100936.44;;;18.65;61.75
19286;BME280;9776;50.798;6.430;2022-07-11T03:00:21;100929.81;;;18.61;61.68
19286;BME280;9776;50.798;6.430;2022-07-11T03:02:49;100937.53;;;18.56;62.06
19286;BME280;9776;50.798;6.430;2022-07-11T03:05:16;100937.75;;;18.54;62.17
19286;BME280;9776;50.798;6.430;2022-07-11T03:07:42;100946.78;;;18.53;61.97
19286;BME280;9776;50.798;6.430;2022-07-11T03:10:10;100940.88;;;18.58;62.28
19286;BME280;9776;50.798;6.430;2022-07-11T03:12:36;100940.13;;;18.64;61.92
19286;BME280;9776;50.798;6.430;2022-07-11T03:15:04;100943.44;;;18.66;62.16
19286;BME280;9776;50.798;6.430;2022-07-11T03:17:31;100943.81;;;18.63;61.99
19286;BME280;9776;50.798;6.430;2022-07-11T03:20:00;100945.13;;;18.67;62.09
19286;BME280;9776;50.798;6.430;2022-07-11T03:22:27;100948.44;;;18.69;61.92
19286;BME280;9776;50.798;6.430;2022-07-11T03:24:53;100947.38;;;18.70;62.11
19286;BME280;9776;50.798;6.430;2022-07-11T03:27:20;100946.13;;;18.66;62.33
19286;BME280;9776;50.798;6.430;2022-07-11T03:29:47;100954.31;;;18.64;62.46
19286;BME280;9776;50.798;6.430;2022-07-11T03:32:14;100955.88;;;18.59;62.49
19286;BME280;9776;50.798;6.430;2022-07-11T03:34:40;100952.94;;;18.54;62.81
19286;BME280;9776;50.798;6.430;2022-07-11T03:37:28;100954.31;;;18.50;62.68
19286;BME280;9776;50.798;6.430;2022-07-11T03:39:55;100950.00;;;18.49;62.92
19286;BME280;9776;50.798;6.430;2022-07-11T03:42:23;100961.03;;;18.46;62.78
19286;BME280;9776;50.798;6.430;2022-07-11T03:44:49;100960.34;;;18.52;62.80
19286;BME280;9776;50.798;6.430;2022-07-11T03:47:17;100962.72;;;18.61;62.62
19286;BME280;9776;50.798;6.430;2022-07-11T03:49:43;100960.13;;;18.68;62.58
19286;BME280;9776;50.798;6.430;2022-07-11T03:52:10;100956.91;;;18.73;62.63
19286;BME280;9776;50.798;6.430;2022-07-11T03:54:39;100965.81;;;18.80;62.29
19286;BME280;9776;50.798;6.430;2022-07-11T03:57:05;100963.78;;;18.82;62.62
19286;BME280;9776;50.798;6.430;2022-07-11T03:59:32;100963.88;;;18.88;62.49
19286;BME280;9776;50.798;6.430;2022-07-11T04:01:59;100966.38;;;18.90;62.29
19286;BME280;9776;50.798;6.430;2022-07-11T04:04:26;100967.75;;;18.86;62.42
19286;BME280;9776;50.798;6.430;2022-07-11T04:06:52;100966.09;;;18.85;62.62
19286;BME280;9776;50.798;6.430;2022-07-11T04:09:19;100963.03;;;18.88;62.67
19286;BME280;9776;50.798;6.430;2022-07-11T04:11:47;100961.66;;;18.92;62.55
19286;BME280;9776;50.798;6.430;2022-07-11T04:14:14;100963.31;;;18.93;62.87
19286;BME280;9776;50.798;6.430;2022-07-11T04:16:41;100960.66;;;18.93;62.93
19286;BME280;9776;50.798;6.430;2022-07-11T04:19:07;100961.44;;;18.93;62.95
19286;BME280;9776;50.798;6.430;2022-07-11T04:21:34;100966.81;;;18.93;63.06
19286;BME280;9776;50.798;6.430;2022-07-11T04:24:01;100961.44;;;18.93;63.31
19286;BME280;9776;50.798;6.430;2022-07-11T04:26:28;100963.50;;;18.91;63.49
19286;BME280;9776;50.798;6.430;2022-07-11T04:28:56;100970.69;;;18.91;63.41
19286;BME280;9776;50.798;6.430;2022-07-11T04:31:23;100969.88;;;18.90;63.51
19286;BME280;9776;50.798;6.430;2022-07-11T04:33:51;100975.66;;;18.94;63.58
19286;BME280;9776;50.798;6.430;2022-07-11T04:36:20;100976.50;;;18.94;63.82
19286;BME280;9776;50.798;6.430;2022-07-11T04:38:47;100977.06;;;18.90;63.52
19286;BME280;9776;50.798;6.430;2022-07-11T04:41:15;100978.44;;;18.86;63.84
19286;BME280;9776;50.798;6.430;2022-07-11T04:43:42;100986.31;;;18.87;63.94
19286;BME280;9776;50.798;6.430;2022-07-11T04:46:10;100980.47;;;18.98;63.77
19286;BME280;9776;50.798;6.430;2022-07-11T04:48:37;100980.97;;;19.08;63.52
19286;BME280;9776;50.798;6.430;2022-07-11T04:51:04;100984.38;;;19.17;63.36
19286;BME280;9776;50.798;6.430;2022-07-11T04:53:31;100977.44;;;19.22;63.46
19286;BME280;9776;50.798;6.430;2022-07-11T04:55:58;100979.34;;;19.28;63.31
19286;BME280;9776;50.798;6.430;2022-07-11T04:58:25;100984.69;;;19.28;63.13
19286;BME280;9776;50.798;6.430;2022-07-11T05:00:52;100983.88;;;19.28;63.28
19286;BME280;9776;50.798;6.430;2022-07-11T05:03:20;100993.31;;;19.24;63.45
19286;BME280;9776;50.798;6.430;2022-07-11T05:05:46;100989.44;;;19.26;63.37
19286;BME280;9776;50.798;6.430;2022-07-11T05:08:13;100991.00;;;19.21;63.42
19286;BME280;9776;50.798;6.430;2022-07-11T05:10:40;100987.06;;;19.17;63.68
19286;BME280;9776;50.798;6.430;2022-07-11T05:13:06;100990.31;;;19.12;63.87
19286;BME280;9776;50.798;6.430;2022-07-11T05:15:33;100991.31;;;19.11;64.11
19286;BME280;9776;50.798;6.430;2022-07-11T05:18:00;100997.03;;;19.08;64.02
19286;BME280;9776;50.798;6.430;2022-07-11T05:20:28;100993.34;;;19.09;63.85
19286;BME280;9776;50.798;6.430;2022-07-11T05:22:55;100999.97;;;19.13;63.95
19286;BME280;9776;50.798;6.430;2022-07-11T05:25:22;100992.66;;;19.22;63.79
19286;BME280;9776;50.798;6.430;2022-07-11T05:27:49;100991.91;;;19.28;63.76
19286;BME280;9776;50.798;6.430;2022-07-11T05:30:16;100988.56;;;19.41;63.43
19286;BME280;9776;50.798;6.430;2022-07-11T05:32:42;100984.69;;;19.43;63.32
19286;BME280;9776;50.798;6.430;2022-07-11T05:35:10;100992.09;;;19.41;63.42
19286;BME280;9776;50.798;6.430;2022-07-11T05:37:38;100997.25;;;19.43;63.39
19286;BME280;9776;50.798;6.430;2022-07-11T05:40:06;100994.94;;;19.40;63.35
19286;BME280;9776;50.798;6.430;2022-07-11T05:42:33;100997.50;;;19.48;63.11
19286;BME280;9776;50.798;6.430;2022-07-11T05:45:00;100998.00;;;19.58;63.02
19286;BME280;9776;50.798;6.430;2022-07-11T05:47:27;101005.50;;;19.62;62.87
19286;BME280;9776;50.798;6.430;2022-07-11T05:49:53;101008.41;;;19.67;62.50
19286;BME280;9776;50.798;6.430;2022-07-11T05:52:23;101006.75;;;19.66;62.67
19286;BME280;9776;50.798;6.430;2022-07-11T05:54:51;101011.84;;;19.61;62.82
19286;BME280;9776;50.798;6.430;2022-07-11T05:57:19;101007.97;;;19.64;62.64
19286;BME280;9776;50.798;6.430;2022-07-11T05:59:46;101005.91;;;19.66;62.68
19286;BME280;9776;50.798;6.430;2022-07-11T06:02:13;101010.88;;;19.69;62.50
19286;BME280;9776;50.798;6.430;2022-07-11T06:04:40;101007.25;;;19.76;62.39
19286;BME280;9776;50.798;6.430;2022-07-11T06:07:08;101010.19;;;19.81;62.11
19286;BME280;9776;50.798;6.430;2022-07-11T06:09:35;101013.88;;;19.80;62.28
19286;BME280;9776;50.798;6.430;2022-07-11T06:12:02;101011.97;;;19.74;62.29
19286;BME280;9776;50.798;6.430;2022-07-11T06:14:29;101015.31;;;19.76;62.37
19286;BME280;9776;50.798;6.430;2022-07-11T06:16:56;101012.41;;;19.78;62.17
19286;BME280;9776;50.798;6.430;2022-07-11T06:19:23;101022.59;;;19.89;61.87
19286;BME280;9776;50.798;6.430;2022-07-11T06:21:49;101024.13;;;19.98;61.81
19286;BME280;9776;50.798;6.430;2022-07-11T06:24:18;101020.28;;;20.07;61.47
19286;BME280;9776;50.798;6.430;2022-07-11T06:26:44;101023.97;;;20.06;61.42
19286;BME280;9776;50.798;6.430;2022-07-11T06:29:13;101026.09;;;20.11;61.26
19286;BME280;9776;50.798;6.430;2022-07-11T06:31:39;101026.03;;;20.04;61.50
19286;BME280;9776;50.798;6.430;2022-07-11T06:34:07;101019.78;;;19.97;61.77
19286;BME280;9776;50.798;6.430;2022-07-11T06:36:33;101019.78;;;19.97;61.55
19286;BME280;9776;50.798;6.430;2022-07-11T06:39:00;101027.19;;;19.95;61.68
19286;BME280;9776;50.798;6.430;2022-07-11T06:41:27;101020.16;;;19.94;61.70
19286;BME280;9776;50.798;6.430;2022-07-11T06:43:54;101020.91;;;20.09;61.31
19286;BME280;9776;50.798;6.430;2022-07-11T06:46:22;101024.16;;;20.26;60.90
19286;BME280;9776;50.798;6.430;2022-07-11T06:48:49;101027.03;;;20.24;60.97
19286;BME280;9776;50.798;6.430;2022-07-11T06:51:15;101023.78;;;20.29;60.79
19286;BME280;9776;50.798;6.430;2022-07-11T06:53:46;101032.66;;;20.29;60.89
19286;BME280;9776;50.798;6.430;2022-07-11T06:56:13;101022.44;;;20.18;60.88
19286;BME280;9776;50.798;6.430;2022-07-11T06:58:40;101021.56;;;20.11;61.30
19286;BME280;9776;50.798;6.430;2022-07-11T07:01:06;101031.94;;;20.21;61.06
19286;BME280;9776;50.798;6.430;2022-07-11T07:03:35;101018.16;;;20.24;60.99
19286;BME280;9776;50.798;6.430;2022-07-11T07:06:03;101027.81;;;20.18;61.10
19286;BME280;9776;50.798;6.430;2022-07-11T07:08:31;101022.00;;;20.15;61.02
19286;BME280;9776;50.798;6.430;2022-07-11T07:10:58;101016.84;;;20.13;61.14
19286;BME280;9776;50.798;6.430;2022-07-11T07:13:24;101019.69;;;20.12;61.07
19286;BME280;9776;50.798;6.430;2022-07-11T07:15:54;101022.19;;;20.13;61.25
19286;BME280;9776;50.798;6.430;2022-07-11T07:18:21;101023.44;;;20.17;60.97
19286;BME280;9776;50.798;6.430;2022-07-11T07:20:49;101019.53;;;20.13;61.24
19286;BME280;9776;50.798;6.430;2022-07-11T07:23:18;101023.72;;;20.22;61.13
19286;BME280;9776;50.798;6.430;2022-07-11T07:25:45;101020.56;;;20.40;60.47
19286;BME280;9776;50.798;6.430;2022-07-11T07:28:12;101014.06;;;20.56;60.08
19286;BME280;9776;50.798;6.430;2022-07-11T07:30:39;101024.63;;;20.64;59.81
19286;BME280;9776;50.798;6.430;2022-07-11T07:33:05;101028.63;;;20.74;59.61
19286;BME280;9776;50.798;6.430;2022-07-11T07:35:32;101028.72;;;20.94;59.24
19286;BME280;9776;50.798;6.430;2022-07-11T07:38:00;101034.59;;;21.11;58.81
19286;BME280;9776;50.798;6.430;2022-07-11T07:40:27;101042.66;;;21.17;58.57
19286;BME280;9776;50.798;6.430;2022-07-11T07:42:54;101036.69;;;21.22;58.36
19286;BME280;9776;50.798;6.430;2022-07-11T07:45:22;101036.09;;;21.26;58.19
19286;BME280;9776;50.798;6.430;2022-07-11T07:47:48;101037.94;;;21.26;58.22
19286;BME280;9776;50.798;6.430;2022-07-11T07:50:15;101032.94;;;21.16;58.64
19286;BME280;9776;50.798;6.430;2022-07-11T07:52:42;101032.19;;;21.42;57.85
19286;BME280;9776;50.798;6.430;2022-07-11T07:55:10;101036.38;;;21.71;57.17
19286;BME280;9776;50.798;6.430;2022-07-11T07:57:37;101037.06;;;21.92;56.76
19286;BME280;9776;50.798;6.430;2022-07-11T08:00:05;101030.44;;;22.08;56.30
19286;BME280;9776;50.798;6.430;2022-07-11T08:02:49;101035.22;;;22.13;56.08
19286;BME280;9776;50.798;6.430;2022-07-11T08:05:16;101027.53;;;22.23;55.78
19286;BME280;9776;50.798;6.430;2022-07-11T08:07:43;101024.63;;;22.37;55.52
19286;BME280;9776;50.798;6.430;2022-07-11T08:10:12;101021.69;;;22.52;55.12
19286;BME280;9776;50.798;6.430;2022-07-11T08:12:40;101027.47;;;22.69;54.71
19286;BME280;9776;50.798;6.430;2022-07-11T08:15:07;101031.75;;;22.89;54.24
19286;BME280;9776;50.798;6.430;2022-07-11T08:17:34;101026.94;;;23.04;53.62
19286;BME280;9776;50.798;6.430;2022-07-11T08:20:01;101028.84;;;22.97;53.91
19286;BME280;9776;50.798;6.430;2022-07-11T08:22:27;101028.28;;;22.82;54.27
19286;BME280;9776;50.798;6.430;2022-07-11T08:24:54;101017.03;;;22.98;53.87
19286;BME280;9776;50.798;6.430;2022-07-11T08:27:22;101026.34;;;23.02;53.77
19286;BME280;9776;50.798;6.430;2022-07-11T08:29:49;101020.44;;;23.25;53.21
19286;BME280;9776;50.798;6.430;2022-07-11T08:32:16;101030.53;;;23.43;52.75
19286;BME280;9776;50.798;6.430;2022-07-11T08:34:44;101025.88;;;23.56;52.38
19286;BME280;9776;50.798;6.430;2022-07-11T08:37:11;101023.53;;;23.29;52.92
19286;BME280;9776;50.798;6.430;2022-07-11T08:39:38;101021.78;;;23.03;53.57
19286;BME280;9776;50.798;6.430;2022-07-11T08:42:04;101027.06;;;22.78;54.21
19286;BME280;9776;50.798;6.430;2022-07-11T08:44:33;101022.69;;;22.84;54.01
19286;BME280;9776;50.798;6.430;2022-07-11T08:47:01;101018.03;;;23.04;53.67
19286;BME280;9776;50.798;6.430;2022-07-11T08:49:29;101019.69;;;23.05;53.45
19286;BME280;9776;50.798;6.430;2022-07-11T08:51:58;101019.22;;;23.14;53.33
19286;BME280;9776;50.798;6.430;2022-07-11T08:54:24;101016.75;;;23.13;53.40
19286;BME280;9776;50.798;6.430;2022-07-11T08:56:51;101020.88;;;23.22;53.04
19286;BME280;9776;50.798;6.430;2022-07-11T08:59:20;101018.00;;;23.17;53.05
19286;BME280;9776;50.798;6.430;2022-07-11T09:01:54;101030.59;;;23.23;52.81
19286;BME280;9776;50.798;6.430;2022-07-11T09:04:23;101028.91;;;23.29;52.66
19286;BME280;9776;50.798;6.430;2022-07-11T09:06:50;101025.78;;;23.32;52.81
19286;BME280;9776;50.798;6.430;2022-07-11T09:09:16;101027.59;;;23.38;52.53
19286;BME280;9776;50.798;6.430;2022-07-11T09:11:51;101027.00;;;23.42;52.31
19286;BME280;9776;50.798;6.430;2022-07-11T09:14:22;101027.16;;;23.47;52.10
19286;BME280;9776;50.798;6.430;2022-07-11T09:16:55;101032.97;;;23.51;52.10
19286;BME280;9776;50.798;6.430;2022-07-11T09:19:23;101034.56;;;23.58;51.95
19286;BME280;9776;50.798;6.430;2022-07-11T09:22:01;101035.31;;;23.72;51.60
19286;BME280;9776;50.798;6.430;2022-07-11T09:24:56;101030.84;;;23.84;51.26
19286;BME280;9776;50.798;6.430;2022-07-11T09:27:44;101034.69;;;23.70;51.55
19286;BME280;9776;50.798;6.430;2022-07-11T09:30:20;101031.66;;;23.60;52.03
19286;BME280;9776;50.798;6.430;2022-07-11T09:32:54;101032.69;;;23.59;51.89
19286;BME280;9776;50.798;6.430;2022-07-11T09:37:48;101029.88;;;23.47;52.17
19286;BME280;9776;50.798;6.430;2022-07-11T09:40:15;101028.25;;;23.40;52.29
19286;BME280;9776;50.798;6.430;2022-07-11T09:42:47;101026.81;;;23.37;52.23
19286;BME280;9776;50.798;6.430;2022-07-11T09:45:15;101025.16;;;23.30;52.47
19286;BME280;9776;50.798;6.430;2022-07-11T09:47:43;101030.19;;;23.20;52.74
19286;BME280;9776;50.798;6.430;2022-07-11T09:50:12;101029.19;;;23.14;52.91
19286;BME280;9776;50.798;6.430;2022-07-11T09:52:42;101030.88;;;23.08;52.98
19286;BME280;9776;50.798;6.430;2022-07-11T09:55:10;101021.81;;;22.96;53.33
19286;BME280;9776;50.798;6.430;2022-07-11T09:57:38;101026.44;;;22.83;53.57
19286;BME280;9776;50.798;6.430;2022-07-11T10:00:07;101026.19;;;22.84;53.46
19286;BME280;9776;50.798;6.430;2022-07-11T10:02:35;101021.03;;;22.83;53.36
19286;BME280;9776;50.798;6.430;2022-07-11T10:05:03;101022.31;;;22.74;53.62
19286;BME280;9776;50.798;6.430;2022-07-11T10:07:31;101016.34;;;22.65;53.78
19286;BME280;9776;50.798;6.430;2022-07-11T10:09:59;101010.75;;;22.53;54.07
19286;BME280;9776;50.798;6.430;2022-07-11T10:12:26;101017.81;;;22.41;54.31
19286;BME280;9776;50.798;6.430;2022-07-11T10:14:56;101017.19;;;22.39;54.76
19286;BME280;9776;50.798;6.430;2022-07-11T10:17:28;101018.63;;;22.35;54.90
19286;BME280;9776;50.798;6.430;2022-07-11T10:20:02;101016.78;;;22.36;54.76
19286;BME280;9776;50.798;6.430;2022-07-11T10:22:36;101021.31;;;22.22;55.09
19286;BME280;9776;50.798;6.430;2022-07-11T10:25:11;101019.88;;;22.26;55.21
19286;BME280;9776;50.798;6.430;2022-07-11T10:27:51;101024.03;;;22.29;54.87
19286;BME280;9776;50.798;6.430;2022-07-11T10:30:43;101021.13;;;22.24;55.16
19286;BME280;9776;50.798;6.430;2022-07-11T10:33:10;101022.81;;;22.25;55.33
19286;BME280;9776;50.798;6.430;2022-07-11T10:35:40;101027.75;;;22.28;55.17
19286;BME280;9776;50.798;6.430;2022-07-11T10:38:08;101032.72;;;22.31;55.11
19286;BME280;9776;50.798;6.430;2022-07-11T10:40:46;101028.78;;;22.33;55.05
19286;BME280;9776;50.798;6.430;2022-07-11T10:43:14;101036.63;;;22.35;55.01
19286;BME280;9776;50.798;6.430;2022-07-11T10:45:58;101036.22;;;22.31;55.12
19286;BME280;9776;50.798;6.430;2022-07-11T10:48:26;101031.06;;;22.36;55.23
19286;BME280;9776;50.798;6.430;2022-07-11T10:51:00;101036.03;;;22.39;55.08
19286;BME280;9776;50.798;6.430;2022-07-11T10:53:33;101038.72;;;22.39;55.37
19286;BME280;9776;50.798;6.430;2022-07-11T10:56:11;101032.69;;;22.37;55.14
19286;BME280;9776;50.798;6.430;2022-07-11T10:58:42;101039.94;;;22.37;55.35
19286;BME280;9776;50.798;6.430;2022-07-11T11:01:10;101041.19;;;22.41;55.05
19286;BME280;9776;50.798;6.430;2022-07-11T11:03:38;101045.94;;;22.39;55.29
19286;BME280;9776;50.798;6.430;2022-07-11T11:06:05;101044.28;;;22.38;55.29
19286;BME280;9776;50.798;6.430;2022-07-11T11:08:41;101049.25;;;22.34;55.28
19286;BME280;9776;50.798;6.430;2022-07-11T11:11:36;101053.00;;;22.33;55.28
19286;BME280;9776;50.798;6.430;2022-07-11T11:14:23;101049.25;;;22.34;55.43
19286;BME280;9776;50.798;6.430;2022-07-11T11:16:51;101050.09;;;22.41;55.18
19286;BME280;9776;50.798;6.430;2022-07-11T11:19:50;101051.31;;;22.45;55.06
19286;BME280;9776;50.798;6.430;2022-07-11T11:22:18;101048.59;;;22.58;54.59
19286;BME280;9776;50.798;6.430;2022-07-11T11:24:48;101050.88;;;22.61;54.50
19286;BME280;9776;50.798;6.430;2022-07-11T11:27:17;101052.72;;;22.61;54.47
19286;BME280;9776;50.798;6.430;2022-07-11T11:29:48;101052.97;;;22.59;54.37
19286;BME280;9776;50.798;6.430;2022-07-11T11:32:15;101050.28;;;22.59;54.31
19286;BME280;9776;50.798;6.430;2022-07-11T11:34:43;101046.75;;;22.59;54.34
19286;BME280;9776;50.798;6.430;2022-07-11T11:37:10;101054.81;;;22.66;54.19
19286;BME280;9776;50.798;6.430;2022-07-11T11:39:38;101040.53;;;22.72;54.12
19286;BME280;9776;50.798;6.430;2022-07-11T11:42:12;101046.31;;;22.75;53.94
19286;BME280;9776;50.798;6.430;2022-07-11T11:44:50;101051.69;;;22.75;53.81
19286;BME280;9776;50.798;6.430;2022-07-11T11:47:17;101047.13;;;22.76;53.81
19286;BME280;9776;50.798;6.430;2022-07-11T11:49:45;101051.06;;;22.80;53.83
19286;BME280;9776;50.798;6.430;2022-07-11T11:52:12;101050.19;;;22.86;53.70
19286;BME280;9776;50.798;6.430;2022-07-11T11:54:40;101057.06;;;22.88;53.47
19286;BME280;9776;50.798;6.430;2022-07-11T11:57:08;101051.63;;;22.95;53.62
19286;BME280;9776;50.798;6.430;2022-07-11T11:59:38;101049.16;;;23.00;53.42
19286;BME280;9776;50.798;6.430;2022-07-11T12:02:05;101053.03;;;23.04;53.27
19286;BME280;9776;50.798;6.430;2022-07-11T12:04:34;101052.00;;;23.11;53.11
19286;BME280;9776;50.798;6.430;2022-07-11T12:07:02;101051.53;;;23.14;53.03
19286;BME280;9776;50.798;6.430;2022-07-11T12:09:29;101048.47;;;23.11;53.07
19286;BME280;9776;50.798;6.430;2022-07-11T12:12:18;101056.50;;;23.17;52.86
19286;BME280;9776;50.798;6.430;2022-07-11T12:15:06;101049.69;;;23.15;52.82
19286;BME280;9776;50.798;6.430;2022-07-11T12:17:34;101050.69;;;23.21;52.63
19286;BME280;9776;50.798;6.430;2022-07-11T12:20:01;101045.34;;;23.14;52.92
19286;BME280;9776;50.798;6.430;2022-07-11T12:22:27;101039.91;;;23.21;52.75
19286;BME280;9776;50.798;6.430;2022-07-11T12:24:54;101039.03;;;23.40;52.29
19286;BME280;9776;50.798;6.430;2022-07-11T12:27:25;101048.47;;;23.55;52.03
19286;BME280;9776;50.798;6.430;2022-07-11T12:29:52;101046.88;;;23.48;52.22
19286;BME280;9776;50.798;6.430;2022-07-11T12:32:21;101037.31;;;23.52;52.34
19286;BME280;9776;50.798;6.430;2022-07-11T12:34:49;101042.78;;;23.70;51.96
19286;BME280;9776;50.798;6.430;2022-07-11T12:37:17;101049.88;;;23.64;52.01
19286;BME280;9776;50.798;6.430;2022-07-11T12:39:49;101055.25;;;23.64;51.88
19286;BME280;9776;50.798;6.430;2022-07-11T12:42:24;101051.41;;;23.79;51.76
19286;BME280;9776;50.798;6.430;2022-07-11T12:44:58;101044.44;;;23.96;51.15
19286;BME280;9776;50.798;6.430;2022-07-11T12:47:27;101039.69;;;23.98;51.14
19286;BME280;9776;50.798;6.430;2022-07-11T12:49:55;101040.00;;;23.83;51.44
19286;BME280;9776;50.798;6.430;2022-07-11T12:52:22;101036.91;;;23.80;51.56
19286;BME280;9776;50.798;6.430;2022-07-11T12:54:49;101045.06;;;23.66;51.52
19286;BME280;9776;50.798;6.430;2022-07-11T12:57:20;101042.91;;;23.50;51.87
19286;BME280;9776;50.798;6.430;2022-07-11T12:59:47;101044.75;;;23.56;51.67
19286;BME280;9776;50.798;6.430;2022-07-11T13:02:14;101037.69;;;23.55;51.74
19286;BME280;9776;50.798;6.430;2022-07-11T13:04:45;101036.38;;;23.64;51.24
19286;BME280;9776;50.798;6.430;2022-07-11T13:07:23;101034.50;;;23.71;51.03
19286;BME280;9776;50.798;6.430;2022-07-11T13:10:09;101038.81;;;23.72;50.98